sensor_id;sensor_type;location;lat;lon;timestamp;P1;durP1;ratioP1;P2;durP2;ratioP2
34737;SDS011;39910;47.154;27.614;2022-07-30T00:01:49;6.88;;;6.57;;
34737;SDS011;39910;47.154;27.614;2022-07-30T00:04:15;7.00;;;6.70;;
34737;SDS011;39910;47.154;27.614;2022-07-30T00:06:41;6.68;;;6.38;;
34737;SDS011;39910;47.154;27.614;2022-07-30T00:09:06;6.82;;;6.53;;
34737;SDS011;39910;47.154;27.614;2022-07-30T00:11:32;6.60;;;6.30;;
34737;SDS011;39910;47.154;27.614;2022-07-30T00:13:58;6.50;;;6.20;;
34737;SDS011;39910;47.154;27.614;2022-07-30T00:16:24;7.10;;;6.80;;
34737;SDS011;39910;47.154;27.614;2022-07-30T00:18:49;6.80;;;6.50;;
34737;SDS011;39910;47.154;27.614;2022-07-30T00:21:15;6.88;;;6.57;;
34737;SDS011;39910;47.154;27.614;2022-07-30T00:23:40;6.80;;;6.50;;
34737;SDS011;39910;47.154;27.614;2022-07-30T00:26:06;6.80;;;6.50;;
34737;SDS011;39910;47.154;27.614;2022-07-30T00:28:31;6.90;;;6.60;;
34737;SDS011;39910;47.154;27.614;2022-07-30T00:30:57;6.90;;;6.60;;
34737;SDS011;39910;47.154;27.614;2022-07-30T00:33:22;6.70;;;6.40;;
34737;SDS011;39910;47.154;27.614;2022-07-30T00:35:48;6.82;;;6.53;;
34737;SDS011;39910;47.154;27.614;2022-07-30T00:38:13;6.90;;;6.60;;
34737;SDS011;39910;47.154;27.614;2022-07-30T00:40:39;6.63;;;6.32;;
34737;SDS011;39910;47.154;27.614;2022-07-30T00:43:05;6.68;;;6.38;;
34737;SDS011;39910;47.154;27.614;2022-07-30T00:45:30;6.95;;;6.65;;
34737;SDS011;39910;47.154;27.614;2022-07-30T00:47:56;7.30;;;7.00;;
34737;SDS011;39910;47.154;27.614;2022-07-30T00:50:25;6.97;;;6.68;;
34737;SDS011;39910;47.154;27.614;2022-07-30T00:52:51;7.30;;;7.00;;
34737;SDS011;39910;47.154;27.614;2022-07-30T00:55:16;6.75;;;6.45;;
34737;SDS011;39910;47.154;27.614;2022-07-30T00:57:42;6.80;;;6.50;;
34737;SDS011;39910;47.154;27.614;2022-07-30T01:00:09;6.80;;;6.50;;
34737;SDS011;39910;47.154;27.614;2022-07-30T01:02:38;6.80;;;6.50;;
34737;SDS011;39910;47.154;27.614;2022-07-30T01:05:04;6.90;;;6.60;;
34737;SDS011;39910;47.154;27.614;2022-07-30T01:07:31;6.85;;;6.55;;
34737;SDS011;39910;47.154;27.614;2022-07-30T01:09:56;7.10;;;6.80;;
34737;SDS011;39910;47.154;27.614;2022-07-30T01:12:22;6.97;;;6.68;;
34737;SDS011;39910;47.154;27.614;2022-07-30T01:14:50;6.60;;;6.30;;
34737;SDS011;39910;47.154;27.614;2022-07-30T01:17:17;6.95;;;6.65;;
34737;SDS011;39910;47.154;27.614;2022-07-30T01:19:42;6.90;;;6.60;;
34737;SDS011;39910;47.154;27.614;2022-07-30T01:27:27;6.75;;;6.45;;
34737;SDS011;39910;47.154;27.614;2022-07-30T01:29:55;7.07;;;6.78;;
34737;SDS011;39910;47.154;27.614;2022-07-30T01:32:23;6.88;;;6.57;;
34737;SDS011;39910;47.154;27.614;2022-07-30T01:34:50;6.60;;;6.30;;
34737;SDS011;39910;47.154;27.614;2022-07-30T01:37:17;6.90;;;6.60;;
34737;SDS011;39910;47.154;27.614;2022-07-30T01:39:45;6.80;;;6.50;;
34737;SDS011;39910;47.154;27.614;2022-07-30T01:42:11;6.85;;;6.55;;
34737;SDS011;39910;47.154;27.614;2022-07-30T01:44:38;7.00;;;6.70;;
34737;SDS011;39910;47.154;27.614;2022-07-30T01:47:05;6.78;;;6.47;;
34737;SDS011;39910;47.154;27.614;2022-07-30T01:49:35;6.60;;;6.30;;
34737;SDS011;39910;47.154;27.614;2022-07-30T01:52:03;6.78;;;6.47;;
34737;SDS011;39910;47.154;27.614;2022-07-30T01:54:29;6.90;;;6.60;;
34737;SDS011;39910;47.154;27.614;2022-07-30T01:56:57;7.00;;;6.70;;
34737;SDS011;39910;47.154;27.614;2022-07-30T01:59:25;6.65;;;6.35;;
34737;SDS011;39910;47.154;27.614;2022-07-30T02:01:52;6.80;;;6.50;;
34737;SDS011;39910;47.154;27.614;2022-07-30T02:04:17;6.70;;;6.40;;
34737;SDS011;39910;47.154;27.614;2022-07-30T02:06:45;6.90;;;6.60;;
34737;SDS011;39910;47.154;27.614;2022-07-30T02:09:17;7.00;;;6.70;;
34737;SDS011;39910;47.154;27.614;2022-07-30T02:11:47;6.90;;;6.60;;
34737;SDS011;39910;47.154;27.614;2022-07-30T02:14:48;6.60;;;6.30;;
34737;SDS011;39910;47.154;27.614;2022-07-30T02:17:20;6.80;;;6.50;;
34737;SDS011;39910;47.154;27.614;2022-07-30T02:19:52;6.78;;;6.47;;
34737;SDS011;39910;47.154;27.614;2022-07-30T02:22:20;6.70;;;6.40;;
34737;SDS011;39910;47.154;27.614;2022-07-30T02:24:50;6.88;;;6.57;;
34737;SDS011;39910;47.154;27.614;2022-07-30T02:27:19;6.97;;;6.68;;
34737;SDS011;39910;47.154;27.614;2022-07-30T02:29:48;6.80;;;6.50;;
34737;SDS011;39910;47.154;27.614;2022-07-30T02:32:17;6.80;;;6.50;;
34737;SDS011;39910;47.154;27.614;2022-07-30T02:34:45;6.70;;;6.40;;
34737;SDS011;39910;47.154;27.614;2022-07-30T02:37:15;7.00;;;6.70;;
34737;SDS011;39910;47.154;27.614;2022-07-30T02:39:47;6.88;;;6.57;;
34737;SDS011;39910;47.154;27.614;2022-07-30T02:42:13;6.70;;;6.40;;
34737;SDS011;39910;47.154;27.614;2022-07-30T02:44:41;6.60;;;6.30;;
34737;SDS011;39910;47.154;27.614;2022-07-30T02:47:10;6.75;;;6.45;;
34737;SDS011;39910;47.154;27.614;2022-07-30T02:49:37;7.00;;;6.70;;
34737;SDS011;39910;47.154;27.614;2022-07-30T02:52:05;6.90;;;6.60;;
34737;SDS011;39910;47.154;27.614;2022-07-30T02:54:37;6.70;;;6.40;;
34737;SDS011;39910;47.154;27.614;2022-07-30T02:57:04;6.80;;;6.50;;
34737;SDS011;39910;47.154;27.614;2022-07-30T02:59:31;6.72;;;6.43;;
34737;SDS011;39910;47.154;27.614;2022-07-30T03:01:59;6.78;;;6.47;;
34737;SDS011;39910;47.154;27.614;2022-07-30T03:04:26;6.70;;;6.40;;
34737;SDS011;39910;47.154;27.614;2022-07-30T03:06:53;6.72;;;6.43;;
34737;SDS011;39910;47.154;27.614;2022-07-30T03:09:20;7.00;;;6.70;;
34737;SDS011;39910;47.154;27.614;2022-07-30T03:11:46;6.80;;;6.50;;
34737;SDS011;39910;47.154;27.614;2022-07-30T03:14:15;6.68;;;6.38;;
34737;SDS011;39910;47.154;27.614;2022-07-30T03:16:41;6.80;;;6.50;;
34737;SDS011;39910;47.154;27.614;2022-07-30T03:19:12;6.75;;;6.45;;
34737;SDS011;39910;47.154;27.614;2022-07-30T03:21:40;6.60;;;6.30;;
34737;SDS011;39910;47.154;27.614;2022-07-30T03:24:07;6.80;;;6.50;;
34737;SDS011;39910;47.154;27.614;2022-07-30T03:26:35;7.00;;;6.70;;
34737;SDS011;39910;47.154;27.614;2022-07-30T03:29:03;6.70;;;6.40;;
34737;SDS011;39910;47.154;27.614;2022-07-30T03:31:30;6.80;;;6.50;;
34737;SDS011;39910;47.154;27.614;2022-07-30T03:33:56;6.70;;;6.40;;
34737;SDS011;39910;47.154;27.614;2022-07-30T03:36:22;7.05;;;6.75;;
34737;SDS011;39910;47.154;27.614;2022-07-30T03:38:49;6.93;;;6.63;;
34737;SDS011;39910;47.154;27.614;2022-07-30T03:41:15;7.10;;;6.80;;
34737;SDS011;39910;47.154;27.614;2022-07-30T03:43:42;6.90;;;6.60;;
34737;SDS011;39910;47.154;27.614;2022-07-30T03:46:09;6.95;;;6.65;;
34737;SDS011;39910;47.154;27.614;2022-07-30T03:48:36;6.85;;;6.55;;
34737;SDS011;39910;47.154;27.614;2022-07-30T03:51:03;6.88;;;6.57;;
34737;SDS011;39910;47.154;27.614;2022-07-30T03:53:31;6.90;;;6.60;;
34737;SDS011;39910;47.154;27.614;2022-07-30T03:55:57;6.97;;;6.68;;
34737;SDS011;39910;47.154;27.614;2022-07-30T03:58:23;7.20;;;6.90;;
34737;SDS011;39910;47.154;27.614;2022-07-30T04:00:49;7.20;;;6.90;;
34737;SDS011;39910;47.154;27.614;2022-07-30T04:03:28;7.07;;;6.78;;
34737;SDS011;39910;47.154;27.614;2022-07-30T04:05:55;7.20;;;6.90;;
34737;SDS011;39910;47.154;27.614;2022-07-30T04:08:21;7.10;;;6.80;;
34737;SDS011;39910;47.154;27.614;2022-07-30T04:10:47;7.20;;;6.90;;
34737;SDS011;39910;47.154;27.614;2022-07-30T04:13:13;7.32;;;7.03;;
34737;SDS011;39910;47.154;27.614;2022-07-30T04:18:25;6.97;;;6.68;;
34737;SDS011;39910;47.154;27.614;2022-07-30T04:20:55;6.80;;;6.50;;
34737;SDS011;39910;47.154;27.614;2022-07-30T04:23:23;7.00;;;6.70;;
34737;SDS011;39910;47.154;27.614;2022-07-30T04:25:49;7.18;;;6.88;;
34737;SDS011;39910;47.154;27.614;2022-07-30T04:28:15;6.90;;;6.60;;
34737;SDS011;39910;47.154;27.614;2022-07-30T04:30:42;6.90;;;6.60;;
34737;SDS011;39910;47.154;27.614;2022-07-30T04:33:08;7.10;;;6.80;;
34737;SDS011;39910;47.154;27.614;2022-07-30T04:35:33;7.10;;;6.80;;
34737;SDS011;39910;47.154;27.614;2022-07-30T04:37:59;6.80;;;6.50;;
34737;SDS011;39910;47.154;27.614;2022-07-30T04:40:27;7.00;;;6.70;;
34737;SDS011;39910;47.154;27.614;2022-07-30T04:42:54;7.00;;;6.70;;
34737;SDS011;39910;47.154;27.614;2022-07-30T04:45:20;6.95;;;6.65;;
34737;SDS011;39910;47.154;27.614;2022-07-30T04:47:46;6.80;;;6.50;;
34737;SDS011;39910;47.154;27.614;2022-07-30T04:50:11;6.85;;;6.55;;
34737;SDS011;39910;47.154;27.614;2022-07-30T04:52:38;7.10;;;6.80;;
34737;SDS011;39910;47.154;27.614;2022-07-30T04:55:06;7.00;;;6.70;;
34737;SDS011;39910;47.154;27.614;2022-07-30T04:57:34;6.85;;;6.55;;
34737;SDS011;39910;47.154;27.614;2022-07-30T05:00:03;7.00;;;6.70;;
34737;SDS011;39910;47.154;27.614;2022-07-30T05:02:30;6.72;;;6.43;;
34737;SDS011;39910;47.154;27.614;2022-07-30T05:05:01;6.88;;;6.57;;
34737;SDS011;39910;47.154;27.614;2022-07-30T05:07:28;6.93;;;6.63;;
34737;SDS011;39910;47.154;27.614;2022-07-30T05:09:55;6.68;;;6.38;;
34737;SDS011;39910;47.154;27.614;2022-07-30T05:12:30;6.80;;;6.50;;
34737;SDS011;39910;47.154;27.614;2022-07-30T05:15:02;6.97;;;6.68;;
34737;SDS011;39910;47.154;27.614;2022-07-30T05:17:28;6.82;;;6.53;;
34737;SDS011;39910;47.154;27.614;2022-07-30T05:19:54;7.00;;;6.70;;
34737;SDS011;39910;47.154;27.614;2022-07-30T05:22:19;6.88;;;6.57;;
34737;SDS011;39910;47.154;27.614;2022-07-30T05:24:45;6.75;;;6.45;;
34737;SDS011;39910;47.154;27.614;2022-07-30T05:27:10;6.82;;;6.53;;
34737;SDS011;39910;47.154;27.614;2022-07-30T05:29:36;7.03;;;6.72;;
34737;SDS011;39910;47.154;27.614;2022-07-30T05:32:01;6.93;;;6.63;;
34737;SDS011;39910;47.154;27.614;2022-07-30T05:34:26;7.00;;;6.70;;
34737;SDS011;39910;47.154;27.614;2022-07-30T05:36:52;6.82;;;6.53;;
34737;SDS011;39910;47.154;27.614;2022-07-30T05:39:17;7.05;;;6.75;;
34737;SDS011;39910;47.154;27.614;2022-07-30T05:41:43;6.78;;;6.47;;
34737;SDS011;39910;47.154;27.614;2022-07-30T05:44:09;7.00;;;6.70;;
34737;SDS011;39910;47.154;27.614;2022-07-30T05:46:34;6.85;;;6.55;;
34737;SDS011;39910;47.154;27.614;2022-07-30T05:49:00;6.90;;;6.60;;
34737;SDS011;39910;47.154;27.614;2022-07-30T05:51:25;6.88;;;6.57;;
34737;SDS011;39910;47.154;27.614;2022-07-30T05:53:51;7.10;;;6.80;;
34737;SDS011;39910;47.154;27.614;2022-07-30T05:56:16;6.72;;;6.43;;
34737;SDS011;39910;47.154;27.614;2022-07-30T05:58:42;7.00;;;6.70;;
34737;SDS011;39910;47.154;27.614;2022-07-30T06:01:07;6.85;;;6.55;;
34737;SDS011;39910;47.154;27.614;2022-07-30T06:03:33;6.85;;;6.55;;
34737;SDS011;39910;47.154;27.614;2022-07-30T06:05:59;6.82;;;6.53;;
34737;SDS011;39910;47.154;27.614;2022-07-30T06:08:27;7.00;;;6.70;;
34737;SDS011;39910;47.154;27.614;2022-07-30T06:10:52;7.00;;;6.70;;
34737;SDS011;39910;47.154;27.614;2022-07-30T06:13:18;6.97;;;6.68;;
34737;SDS011;39910;47.154;27.614;2022-07-30T06:15:43;7.30;;;7.00;;
34737;SDS011;39910;47.154;27.614;2022-07-30T06:18:09;6.88;;;6.57;;
34737;SDS011;39910;47.154;27.614;2022-07-30T06:20:34;7.03;;;6.72;;
34737;SDS011;39910;47.154;27.614;2022-07-30T06:23:00;7.10;;;6.80;;
34737;SDS011;39910;47.154;27.614;2022-07-30T06:25:25;7.20;;;6.90;;
34737;SDS011;39910;47.154;27.614;2022-07-30T06:27:51;7.18;;;6.88;;
34737;SDS011;39910;47.154;27.614;2022-07-30T06:30:16;7.05;;;6.75;;
34737;SDS011;39910;47.154;27.614;2022-07-30T06:32:42;7.20;;;6.90;;
34737;SDS011;39910;47.154;27.614;2022-07-30T06:35:09;7.40;;;7.10;;
34737;SDS011;39910;47.154;27.614;2022-07-30T06:37:35;7.72;;;7.43;;
34737;SDS011;39910;47.154;27.614;2022-07-30T06:40:01;7.30;;;7.00;;
34737;SDS011;39910;47.154;27.614;2022-07-30T06:42:26;7.35;;;7.05;;
34737;SDS011;39910;47.154;27.614;2022-07-30T06:44:52;7.10;;;6.80;;
34737;SDS011;39910;47.154;27.614;2022-07-30T06:47:19;7.20;;;6.90;;
34737;SDS011;39910;47.154;27.614;2022-07-30T06:49:52;7.10;;;6.80;;
34737;SDS011;39910;47.154;27.614;2022-07-30T06:52:18;7.28;;;6.97;;
34737;SDS011;39910;47.154;27.614;2022-07-30T06:54:43;7.10;;;6.80;;
34737;SDS011;39910;47.154;27.614;2022-07-30T06:57:09;7.10;;;6.80;;
34737;SDS011;39910;47.154;27.614;2022-07-30T06:59:35;7.40;;;7.10;;
34737;SDS011;39910;47.154;27.614;2022-07-30T07:02:01;7.50;;;7.20;;
34737;SDS011;39910;47.154;27.614;2022-07-30T07:04:26;7.25;;;6.95;;
34737;SDS011;39910;47.154;27.614;2022-07-30T07:06:51;7.50;;;7.20;;
34737;SDS011;39910;47.154;27.614;2022-07-30T07:09:17;7.40;;;7.10;;
34737;SDS011;39910;47.154;27.614;2022-07-30T07:11:43;7.40;;;7.10;;
34737;SDS011;39910;47.154;27.614;2022-07-30T07:14:08;7.22;;;6.93;;
34737;SDS011;39910;47.154;27.614;2022-07-30T07:16:34;7.20;;;6.90;;
34737;SDS011;39910;47.154;27.614;2022-07-30T07:18:59;7.28;;;6.97;;
34737;SDS011;39910;47.154;27.614;2022-07-30T07:21:25;7.40;;;7.10;;
34737;SDS011;39910;47.154;27.614;2022-07-30T07:23:50;7.30;;;7.00;;
34737;SDS011;39910;47.154;27.614;2022-07-30T07:26:16;7.50;;;7.20;;
34737;SDS011;39910;47.154;27.614;2022-07-30T07:28:42;7.60;;;7.30;;
34737;SDS011;39910;47.154;27.614;2022-07-30T07:31:08;7.22;;;6.93;;
34737;SDS011;39910;47.154;27.614;2022-07-30T07:33:34;7.20;;;6.90;;
34737;SDS011;39910;47.154;27.614;2022-07-30T07:36:00;7.13;;;6.82;;
34737;SDS011;39910;47.154;27.614;2022-07-30T07:38:25;7.00;;;6.70;;
34737;SDS011;39910;47.154;27.614;2022-07-30T07:40:51;7.10;;;6.80;;
34737;SDS011;39910;47.154;27.614;2022-07-30T07:43:17;7.45;;;7.15;;
34737;SDS011;39910;47.154;27.614;2022-07-30T07:45:43;7.30;;;7.00;;
34737;SDS011;39910;47.154;27.614;2022-07-30T07:48:12;7.20;;;6.90;;
34737;SDS011;39910;47.154;27.614;2022-07-30T07:50:38;7.32;;;7.03;;
34737;SDS011;39910;47.154;27.614;2022-07-30T07:53:04;7.63;;;7.32;;
34737;SDS011;39910;47.154;27.614;2022-07-30T07:55:30;7.50;;;7.20;;
34737;SDS011;39910;47.154;27.614;2022-07-30T07:57:56;7.45;;;7.15;;
34737;SDS011;39910;47.154;27.614;2022-07-30T08:00:21;7.30;;;7.00;;
34737;SDS011;39910;47.154;27.614;2022-07-30T08:02:47;7.40;;;7.10;;
34737;SDS011;39910;47.154;27.614;2022-07-30T08:05:13;7.40;;;7.10;;
34737;SDS011;39910;47.154;27.614;2022-07-30T08:07:39;7.50;;;7.20;;
34737;SDS011;39910;47.154;27.614;2022-07-30T08:10:05;7.53;;;7.22;;
34737;SDS011;39910;47.154;27.614;2022-07-30T08:12:31;7.40;;;7.10;;
34737;SDS011;39910;47.154;27.614;2022-07-30T08:14:57;7.60;;;7.30;;
34737;SDS011;39910;47.154;27.614;2022-07-30T08:17:22;7.60;;;7.30;;
34737;SDS011;39910;47.154;27.614;2022-07-30T08:19:48;7.18;;;6.88;;
34737;SDS011;39910;47.154;27.614;2022-07-30T08:22:13;7.60;;;7.30;;
34737;SDS011;39910;47.154;27.614;2022-07-30T08:24:39;7.50;;;7.20;;
34737;SDS011;39910;47.154;27.614;2022-07-30T08:27:05;7.28;;;6.97;;
34737;SDS011;39910;47.154;27.614;2022-07-30T08:29:30;7.50;;;7.20;;
34737;SDS011;39910;47.154;27.614;2022-07-30T08:31:56;7.38;;;7.07;;
34737;SDS011;39910;47.154;27.614;2022-07-30T08:34:22;7.30;;;7.00;;
34737;SDS011;39910;47.154;27.614;2022-07-30T08:36:50;7.50;;;7.20;;
34737;SDS011;39910;47.154;27.614;2022-07-30T08:39:16;7.40;;;7.10;;
34737;SDS011;39910;47.154;27.614;2022-07-30T08:41:41;7.40;;;7.10;;
34737;SDS011;39910;47.154;27.614;2022-07-30T08:44:09;7.50;;;7.20;;
34737;SDS011;39910;47.154;27.614;2022-07-30T08:46:36;7.50;;;7.20;;
34737;SDS011;39910;47.154;27.614;2022-07-30T08:49:07;7.50;;;7.20;;
34737;SDS011;39910;47.154;27.614;2022-07-30T08:51:35;7.47;;;7.18;;
34737;SDS011;39910;47.154;27.614;2022-07-30T08:54:02;7.60;;;7.30;;
34737;SDS011;39910;47.154;27.614;2022-07-30T08:56:28;7.30;;;7.00;;
34737;SDS011;39910;47.154;27.614;2022-07-30T08:58:54;7.47;;;7.18;;
34737;SDS011;39910;47.154;27.614;2022-07-30T09:01:19;7.32;;;7.03;;
34737;SDS011;39910;47.154;27.614;2022-07-30T09:03:46;7.30;;;7.00;;
34737;SDS011;39910;47.154;27.614;2022-07-30T09:06:11;7.18;;;6.88;;
34737;SDS011;39910;47.154;27.614;2022-07-30T09:08:37;7.45;;;7.15;;
34737;SDS011;39910;47.154;27.614;2022-07-30T09:11:02;7.30;;;7.00;;
34737;SDS011;39910;47.154;27.614;2022-07-30T09:13:29;7.20;;;6.90;;
34737;SDS011;39910;47.154;27.614;2022-07-30T09:15:58;7.28;;;6.97;;
34737;SDS011;39910;47.154;27.614;2022-07-30T09:18:28;7.22;;;6.93;;
34737;SDS011;39910;47.154;27.614;2022-07-30T09:21:00;7.40;;;7.10;;
34737;SDS011;39910;47.154;27.614;2022-07-30T09:23:38;7.43;;;7.13;;
34737;SDS011;39910;47.154;27.614;2022-07-30T09:26:03;7.60;;;7.30;;
34737;SDS011;39910;47.154;27.614;2022-07-30T09:28:29;7.30;;;7.00;;
34737;SDS011;39910;47.154;27.614;2022-07-30T09:30:57;7.10;;;6.80;;
34737;SDS011;39910;47.154;27.614;2022-07-30T09:33:33;7.10;;;6.80;;
34737;SDS011;39910;47.154;27.614;2022-07-30T09:36:02;7.38;;;7.07;;
34737;SDS011;39910;47.154;27.614;2022-07-30T09:38:40;7.28;;;6.97;;
34737;SDS011;39910;47.154;27.614;2022-07-30T09:41:06;7.40;;;7.10;;
34737;SDS011;39910;47.154;27.614;2022-07-30T09:43:40;7.35;;;7.05;;
34737;SDS011;39910;47.154;27.614;2022-07-30T09:46:06;7.20;;;6.90;;
34737;SDS011;39910;47.154;27.614;2022-07-30T09:48:32;7.20;;;6.90;;
34737;SDS011;39910;47.154;27.614;2022-07-30T09:50:57;7.07;;;6.78;;
34737;SDS011;39910;47.154;27.614;2022-07-30T09:53:23;7.20;;;6.90;;
34737;SDS011;39910;47.154;27.614;2022-07-30T09:55:49;7.30;;;7.00;;
34737;SDS011;39910;47.154;27.614;2022-07-30T09:58:15;7.32;;;7.03;;
34737;SDS011;39910;47.154;27.614;2022-07-30T10:00:41;7.18;;;6.88;;
34737;SDS011;39910;47.154;27.614;2022-07-30T10:03:15;7.30;;;7.00;;
34737;SDS011;39910;47.154;27.614;2022-07-30T10:08:18;7.20;;;6.90;;
34737;SDS011;39910;47.154;27.614;2022-07-30T10:10:44;7.47;;;7.18;;
34737;SDS011;39910;47.154;27.614;2022-07-30T10:13:10;7.38;;;7.07;;
34737;SDS011;39910;47.154;27.614;2022-07-30T10:15:37;7.40;;;7.10;;
34737;SDS011;39910;47.154;27.614;2022-07-30T10:18:03;7.30;;;7.00;;
34737;SDS011;39910;47.154;27.614;2022-07-30T10:20:30;7.22;;;6.93;;
34737;SDS011;39910;47.154;27.614;2022-07-30T10:22:56;6.90;;;6.60;;
34737;SDS011;39910;47.154;27.614;2022-07-30T10:25:23;7.10;;;6.80;;
34737;SDS011;39910;47.154;27.614;2022-07-30T10:27:49;7.30;;;7.00;;
34737;SDS011;39910;47.154;27.614;2022-07-30T10:30:16;7.20;;;6.90;;
34737;SDS011;39910;47.154;27.614;2022-07-30T10:32:42;7.53;;;7.22;;
34737;SDS011;39910;47.154;27.614;2022-07-30T10:35:09;7.30;;;7.00;;
34737;SDS011;39910;47.154;27.614;2022-07-30T10:37:36;7.60;;;7.30;;
34737;SDS011;39910;47.154;27.614;2022-07-30T10:40:09;7.60;;;7.30;;
34737;SDS011;39910;47.154;27.614;2022-07-30T10:46:28;7.10;;;6.80;;
34737;SDS011;39910;47.154;27.614;2022-07-30T10:48:34;7.05;;;6.75;;
34737;SDS011;39910;47.154;27.614;2022-07-30T10:51:00;7.20;;;6.90;;
34737;SDS011;39910;47.154;27.614;2022-07-30T10:53:42;7.25;;;6.95;;
34737;SDS011;39910;47.154;27.614;2022-07-30T10:56:12;7.07;;;6.78;;
34737;SDS011;39910;47.154;27.614;2022-07-30T11:04:18;7.20;;;6.90;;
34737;SDS011;39910;47.154;27.614;2022-07-30T11:06:47;7.07;;;6.78;;
34737;SDS011;39910;47.154;27.614;2022-07-30T11:11:59;7.10;;;6.80;;
34737;SDS011;39910;47.154;27.614;2022-07-30T11:17:16;7.30;;;7.00;;
34737;SDS011;39910;47.154;27.614;2022-07-30T11:22:38;7.10;;;6.80;;
34737;SDS011;39910;47.154;27.614;2022-07-30T11:25:09;7.07;;;6.78;;
34737;SDS011;39910;47.154;27.614;2022-07-30T11:27:55;6.97;;;6.68;;
34737;SDS011;39910;47.154;27.614;2022-07-30T11:32:51;7.25;;;6.95;;
34737;SDS011;39910;47.154;27.614;2022-07-30T11:38:08;7.10;;;6.80;;
34737;SDS011;39910;47.154;27.614;2022-07-30T11:45:44;7.10;;;6.80;;
34737;SDS011;39910;47.154;27.614;2022-07-30T11:48:13;7.25;;;6.95;;
34737;SDS011;39910;47.154;27.614;2022-07-30T11:50:40;7.00;;;6.70;;
34737;SDS011;39910;47.154;27.614;2022-07-30T11:53:07;7.40;;;7.10;;
34737;SDS011;39910;47.154;27.614;2022-07-30T11:55:42;7.20;;;6.90;;
34737;SDS011;39910;47.154;27.614;2022-07-30T12:01:02;7.20;;;6.90;;
34737;SDS011;39910;47.154;27.614;2022-07-30T12:03:30;6.97;;;6.68;;
34737;SDS011;39910;47.154;27.614;2022-07-30T12:06:03;7.10;;;6.80;;
34737;SDS011;39910;47.154;27.614;2022-07-30T12:08:37;7.45;;;7.15;;
34737;SDS011;39910;47.154;27.614;2022-07-30T12:11:04;7.38;;;7.07;;
34737;SDS011;39910;47.154;27.614;2022-07-30T12:13:30;7.05;;;6.75;;
34737;SDS011;39910;47.154;27.614;2022-07-30T12:15:55;7.20;;;6.90;;
34737;SDS011;39910;47.154;27.614;2022-07-30T12:18:28;7.20;;;6.90;;
34737;SDS011;39910;47.154;27.614;2022-07-30T12:20:55;7.15;;;6.85;;
34737;SDS011;39910;47.154;27.614;2022-07-30T12:23:22;7.30;;;7.00;;
34737;SDS011;39910;47.154;27.614;2022-07-30T12:25:48;7.10;;;6.80;;
34737;SDS011;39910;47.154;27.614;2022-07-30T12:28:27;7.18;;;6.88;;
34737;SDS011;39910;47.154;27.614;2022-07-30T12:30:54;7.10;;;6.80;;
34737;SDS011;39910;47.154;27.614;2022-07-30T12:33:21;6.85;;;6.55;;
34737;SDS011;39910;47.154;27.614;2022-07-30T12:35:48;7.20;;;6.90;;
34737;SDS011;39910;47.154;27.614;2022-07-30T12:38:19;7.10;;;6.80;;
34737;SDS011;39910;47.154;27.614;2022-07-30T12:48:54;7.05;;;6.75;;
34737;SDS011;39910;47.154;27.614;2022-07-30T12:51:22;7.03;;;6.72;;
34737;SDS011;39910;47.154;27.614;2022-07-30T12:53:49;7.00;;;6.70;;
34737;SDS011;39910;47.154;27.614;2022-07-30T12:56:18;6.80;;;6.50;;
34737;SDS011;39910;47.154;27.614;2022-07-30T12:58:49;6.82;;;6.53;;
34737;SDS011;39910;47.154;27.614;2022-07-30T13:01:16;6.85;;;6.55;;
34737;SDS011;39910;47.154;27.614;2022-07-30T13:03:41;6.85;;;6.55;;
34737;SDS011;39910;47.154;27.614;2022-07-30T13:08:53;6.90;;;6.60;;
34737;SDS011;39910;47.154;27.614;2022-07-30T13:11:22;6.75;;;6.45;;
34737;SDS011;39910;47.154;27.614;2022-07-30T13:13:49;6.80;;;6.50;;
34737;SDS011;39910;47.154;27.614;2022-07-30T13:16:15;6.68;;;6.38;;
34737;SDS011;39910;47.154;27.614;2022-07-30T13:18:42;6.70;;;6.40;;
34737;SDS011;39910;47.154;27.614;2022-07-30T13:21:07;6.90;;;6.60;;
34737;SDS011;39910;47.154;27.614;2022-07-30T13:23:34;6.88;;;6.57;;
34737;SDS011;39910;47.154;27.614;2022-07-30T13:26:00;7.00;;;6.70;;
34737;SDS011;39910;47.154;27.614;2022-07-30T13:28:27;7.10;;;6.80;;
34737;SDS011;39910;47.154;27.614;2022-07-30T13:30:52;6.85;;;6.55;;
34737;SDS011;39910;47.154;27.614;2022-07-30T13:33:18;6.60;;;6.30;;
34737;SDS011;39910;47.154;27.614;2022-07-30T13:35:44;6.70;;;6.40;;
34737;SDS011;39910;47.154;27.614;2022-07-30T13:38:09;6.80;;;6.50;;
34737;SDS011;39910;47.154;27.614;2022-07-30T13:40:37;6.80;;;6.50;;
34737;SDS011;39910;47.154;27.614;2022-07-30T13:43:03;6.82;;;6.53;;
34737;SDS011;39910;47.154;27.614;2022-07-30T13:45:30;7.00;;;6.70;;
34737;SDS011;39910;47.154;27.614;2022-07-30T13:47:56;6.88;;;6.57;;
34737;SDS011;39910;47.154;27.614;2022-07-30T13:50:21;6.68;;;6.38;;
34737;SDS011;39910;47.154;27.614;2022-07-30T13:52:47;6.82;;;6.53;;
34737;SDS011;39910;47.154;27.614;2022-07-30T13:55:13;6.70;;;6.40;;
34737;SDS011;39910;47.154;27.614;2022-07-30T13:57:39;7.00;;;6.70;;
34737;SDS011;39910;47.154;27.614;2022-07-30T14:00:06;6.82;;;6.53;;
34737;SDS011;39910;47.154;27.614;2022-07-30T14:02:33;7.00;;;6.70;;
34737;SDS011;39910;47.154;27.614;2022-07-30T14:04:58;6.70;;;6.40;;
34737;SDS011;39910;47.154;27.614;2022-07-30T14:07:24;7.00;;;6.70;;
34737;SDS011;39910;47.154;27.614;2022-07-30T14:09:50;7.20;;;6.90;;
34737;SDS011;39910;47.154;27.614;2022-07-30T14:12:16;6.90;;;6.60;;
34737;SDS011;39910;47.154;27.614;2022-07-30T14:14:42;6.80;;;6.50;;
34737;SDS011;39910;47.154;27.614;2022-07-30T14:17:07;6.95;;;6.65;;
34737;SDS011;39910;47.154;27.614;2022-07-30T14:19:33;6.97;;;6.68;;
34737;SDS011;39910;47.154;27.614;2022-07-30T14:21:58;6.88;;;6.57;;
34737;SDS011;39910;47.154;27.614;2022-07-30T14:24:24;6.85;;;6.55;;
34737;SDS011;39910;47.154;27.614;2022-07-30T14:26:49;6.70;;;6.40;;
34737;SDS011;39910;47.154;27.614;2022-07-30T14:29:15;6.72;;;6.43;;
34737;SDS011;39910;47.154;27.614;2022-07-30T14:31:41;6.80;;;6.50;;
34737;SDS011;39910;47.154;27.614;2022-07-30T14:34:07;6.70;;;6.40;;
34737;SDS011;39910;47.154;27.614;2022-07-30T14:36:34;6.90;;;6.60;;
34737;SDS011;39910;47.154;27.614;2022-07-30T14:39:02;6.60;;;6.30;;
34737;SDS011;39910;47.154;27.614;2022-07-30T14:41:28;6.70;;;6.40;;
34737;SDS011;39910;47.154;27.614;2022-07-30T14:43:54;6.63;;;6.32;;
34737;SDS011;39910;47.154;27.614;2022-07-30T14:46:20;6.75;;;6.45;;
34737;SDS011;39910;47.154;27.614;2022-07-30T14:48:46;6.63;;;6.32;;
34737;SDS011;39910;47.154;27.614;2022-07-30T14:51:13;6.53;;;6.22;;
34737;SDS011;39910;47.154;27.614;2022-07-30T14:53:38;6.65;;;6.35;;
34737;SDS011;39910;47.154;27.614;2022-07-30T14:56:04;6.85;;;6.55;;
34737;SDS011;39910;47.154;27.614;2022-07-30T14:58:30;6.65;;;6.35;;
34737;SDS011;39910;47.154;27.614;2022-07-30T15:00:55;6.80;;;6.50;;
34737;SDS011;39910;47.154;27.614;2022-07-30T15:03:21;6.88;;;6.57;;
34737;SDS011;39910;47.154;27.614;2022-07-30T15:05:46;6.82;;;6.53;;
34737;SDS011;39910;47.154;27.614;2022-07-30T15:08:12;6.80;;;6.50;;
34737;SDS011;39910;47.154;27.614;2022-07-30T15:10:40;7.10;;;6.80;;
34737;SDS011;39910;47.154;27.614;2022-07-30T15:13:06;6.97;;;6.68;;
34737;SDS011;39910;47.154;27.614;2022-07-30T15:15:31;6.90;;;6.60;;
34737;SDS011;39910;47.154;27.614;2022-07-30T15:18:00;7.03;;;6.72;;
34737;SDS011;39910;47.154;27.614;2022-07-30T15:20:25;7.00;;;6.70;;
34737;SDS011;39910;47.154;27.614;2022-07-30T15:22:51;7.00;;;6.70;;
34737;SDS011;39910;47.154;27.614;2022-07-30T15:25:16;7.07;;;6.78;;